sensor_id;sensor_type;location;lat;lon;timestamp;pressure;altitude;pressure_sealevel;temperature;humidity
69351;BME280;57106;51.446;-2.606;2022-11-20T18:27:15;100880.31;;;16.77;45.97
69351;BME280;57106;51.446;-2.606;2022-11-20T18:29:37;100868.09;;;13.92;53.22
69351;BME280;57106;51.446;-2.606;2022-11-20T18:34:28;100872.93;;;12.20;57.06
69351;BME280;57106;51.446;-2.606;2022-11-20T18:36:53;100870.85;;;10.85;60.71
69351;BME280;57106;51.446;-2.606;2022-11-20T18:39:19;100863.58;;;10.20;62.54
69351;BME280;57106;51.446;-2.606;2022-11-20T18:41:44;100861.10;;;9.76;64.03
69351;BME280;57106;51.446;-2.606;2022-11-20T18:44:13;100854.33;;;9.54;64.93
69351;BME280;57106;51.446;-2.606;2022-11-20T18:46:35;100853.61;;;9.28;65.75
69351;BME280;57106;51.446;-2.606;2022-11-20T18:49:03;100852.20;;;9.09;66.62
69351;BME280;57106;51.446;-2.606;2022-11-20T18:51:26;100852.58;;;9.10;66.61
69351;BME280;57106;51.446;-2.606;2022-11-20T18:53:51;100850.01;;;8.99;66.73
69351;BME280;57106;51.446;-2.606;2022-11-20T18:56:18;100853.66;;;8.84;67.03
69351;BME280;57106;51.446;-2.606;2022-11-20T18:58:43;100852.55;;;8.74;67.14
69351;BME280;57106;51.446;-2.606;2022-11-20T19:01:13;100849.57;;;8.84;66.53
69351;BME280;57106;51.446;-2.606;2022-11-20T19:03:33;100849.78;;;8.88;66.68
69351;BME280;57106;51.446;-2.606;2022-11-20T19:05:59;100842.55;;;8.86;66.83
69351;BME280;57106;51.446;-2.606;2022-11-20T19:13:17;100837.49;;;8.91;66.54
69351;BME280;57106;51.446;-2.606;2022-11-20T19:15:41;100838.14;;;8.86;65.09
69351;BME280;57106;51.446;-2.606;2022-11-20T19:18:06;100843.89;;;8.92;65.49
69351;BME280;57106;51.446;-2.606;2022-11-20T19:20:32;100841.91;;;8.89;65.81
69351;BME280;57106;51.446;-2.606;2022-11-20T19:22:58;100839.62;;;8.78;65.99
69351;BME280;57106;51.446;-2.606;2022-11-20T19:25:24;100839.21;;;8.92;65.74
69351;BME280;57106;51.446;-2.606;2022-11-20T19:27:48;100842.82;;;8.85;65.76
69351;BME280;57106;51.446;-2.606;2022-11-20T19:30:14;100847.58;;;8.85;65.43
69351;BME280;57106;51.446;-2.606;2022-11-20T19:32:38;100845.92;;;8.73;66.02
69351;BME280;57106;51.446;-2.606;2022-11-20T19:35:05;100839.09;;;8.83;65.29
69351;BME280;57106;51.446;-2.606;2022-11-20T19:37:32;100842.84;;;8.81;65.54
69351;BME280;57106;51.446;-2.606;2022-11-20T19:39:55;100844.54;;;8.82;65.60
69351;BME280;57106;51.446;-2.606;2022-11-20T20:01:43;100878.23;;;8.98;63.64
69351;BME280;57106;51.446;-2.606;2022-11-20T20:04:08;100883.51;;;8.98;63.14
69351;BME280;57106;51.446;-2.606;2022-11-20T20:13:59;100899.09;;;9.07;63.92
69351;BME280;57106;51.446;-2.606;2022-11-20T20:16:17;100903.08;;;9.03;64.14
69351;BME280;57106;51.446;-2.606;2022-11-20T20:21:08;100907.44;;;8.67;66.06
69351;BME280;57106;51.446;-2.606;2022-11-20T20:35:41;100883.94;;;8.33;68.23
69351;BME280;57106;51.446;-2.606;2022-11-20T20:38:07;100880.65;;;8.32;68.18
69351;BME280;57106;51.446;-2.606;2022-11-20T20:40:30;100871.98;;;8.09;68.64
69351;BME280;57106;51.446;-2.606;2022-11-20T20:42:59;100868.38;;;8.18;68.72
69351;BME280;57106;51.446;-2.606;2022-11-20T20:47:46;100859.59;;;8.29;68.65
69351;BME280;57106;51.446;-2.606;2022-11-20T20:50:12;100851.02;;;8.29;68.91
69351;BME280;57106;51.446;-2.606;2022-11-20T20:52:37;100851.19;;;8.34;68.62
69351;BME280;57106;51.446;-2.606;2022-11-20T20:55:05;100848.31;;;8.28;69.05
69351;BME280;57106;51.446;-2.606;2022-11-20T20:57:27;100840.31;;;8.24;69.23
69351;BME280;57106;51.446;-2.606;2022-11-20T20:59:54;100836.80;;;8.14;69.58
69351;BME280;57106;51.446;-2.606;2022-11-20T21:02:18;100832.60;;;8.27;69.45
69351;BME280;57106;51.446;-2.606;2022-11-20T21:04:44;100837.39;;;8.37;68.66
69351;BME280;57106;51.446;-2.606;2022-11-20T21:07:09;100832.60;;;8.23;68.83
69351;BME280;57106;51.446;-2.606;2022-11-20T21:09:39;100832.89;;;8.33;68.94
69351;BME280;57106;51.446;-2.606;2022-11-20T21:19:16;100856.53;;;8.04;70.32
69351;BME280;57106;51.446;-2.606;2022-11-20T21:21:41;100860.00;;;8.11;69.77
69351;BME280;57106;51.446;-2.606;2022-11-20T21:24:14;100863.16;;;7.89;70.62
69351;BME280;57106;51.446;-2.606;2022-11-20T21:26:32;100850.39;;;8.10;69.85
69351;BME280;57106;51.446;-2.606;2022-11-20T21:28:57;100848.51;;;8.00;70.24
69351;BME280;57106;51.446;-2.606;2022-11-20T21:31:25;100848.57;;;8.02;70.64
69351;BME280;57106;51.446;-2.606;2022-11-20T21:33:51;100842.58;;;7.95;70.65
69351;BME280;57106;51.446;-2.606;2022-11-20T21:36:19;100840.10;;;7.82;70.44
69351;BME280;57106;51.446;-2.606;2022-11-20T21:38:39;100843.97;;;7.67;70.85
69351;BME280;57106;51.446;-2.606;2022-11-20T21:41:06;100843.09;;;7.77;70.82
69351;BME280;57106;51.446;-2.606;2022-11-20T21:46:00;100840.49;;;7.67;71.09
69351;BME280;57106;51.446;-2.606;2022-11-20T21:50:46;100839.00;;;7.21;72.54
69351;BME280;57106;51.446;-2.606;2022-11-20T21:53:12;100838.73;;;7.12;72.58
69351;BME280;57106;51.446;-2.606;2022-11-20T21:55:38;100841.72;;;7.31;71.99
69351;BME280;57106;51.446;-2.606;2022-11-20T21:58:02;100835.78;;;7.47;71.88
69351;BME280;57106;51.446;-2.606;2022-11-20T22:00:28;100821.02;;;7.31;72.32
69351;BME280;57106;51.446;-2.606;2022-11-20T22:02:54;100812.69;;;7.42;72.34
69351;BME280;57106;51.446;-2.606;2022-11-20T22:05:19;100801.40;;;7.41;72.14
69351;BME280;57106;51.446;-2.606;2022-11-20T22:07:45;100786.79;;;7.33;72.28
69351;BME280;57106;51.446;-2.606;2022-11-20T22:10:11;100768.17;;;7.58;71.64
69351;BME280;57106;51.446;-2.606;2022-11-20T22:12:35;100760.35;;;7.39;72.57
69351;BME280;57106;51.446;-2.606;2022-11-20T22:15:00;100765.05;;;7.59;71.95
69351;BME280;57106;51.446;-2.606;2022-11-20T22:17:26;100772.32;;;7.67;71.60
69351;BME280;57106;51.446;-2.606;2022-11-20T22:19:56;100778.97;;;7.63;71.47
69351;BME280;57106;51.446;-2.606;2022-11-20T22:22:18;100779.17;;;7.62;71.59
69351;BME280;57106;51.446;-2.606;2022-11-20T22:27:06;100768.10;;;7.51;72.00
69351;BME280;57106;51.446;-2.606;2022-11-20T23:54:38;100645.38;;;6.62;74.48
